Alto, Texas
Current Conditions -  °F | °C
As of 10:15 AM on Wednesday 22 Oct 2014 (Local Time) from KJSO Reporting Station
Clear Clear  
Wind Chill: 69°   Ceiling: Unl
Heat Index: 69°   Visibility: 10mi
Dew Point: 60°   Wind: 6mph
Humidity: 73%   Direction: 90°E
Pressure: 30.19"   Gusts: NA
Location:  31.65°N, 95.07°W
Report Text: KJSO 221515Z AUTO 09005KT 10SM CLR 20/15 A3019 RMK AO2 T02060157
Loading
Personal Weather Stations






























Interactive Weather Map
Tropical Storm Tracking
New forecast layout! Learn more

10-Day Weather Forecast

Advertisements
Track Severe Weather on mobile